Time;durP1;ratioP1;P1;durP2;ratioP2;P2;SDS_P1;SDS_P2;PMS_P1;PMS_P2;Temp;Humidity;BMP_temperature;BMP_pressure;BME280_temperature;BME280_humidity;BME280_pressure;Samples;Min_cycle;Max_cycle;Signal;HPM_P1;HPM_P2
2023/02/04 00:01:31;;;;;;;18.70;3.50;;;5.40;99.90;;;;;;5093997;28;20289;-69
2023/02/04 00:03:58;;;;;;;18.80;3.53;;;5.30;99.90;;;;;;5095314;28;20202;-69
2023/02/04 00:06:24;;;;;;;18.57;4.20;;;5.30;99.90;;;;;;5080790;28;20217;-69
2023/02/04 00:08:51;;;;;;;21.80;3.87;;;5.30;99.90;;;;;;5084403;28;20577;-69
2023/02/04 00:11:18;;;;;;;18.00;3.63;;;5.30;99.90;;;;;;5094166;28;20205;-69
2023/02/04 00:13:46;;;;;;;19.03;3.70;;;5.30;99.90;;;;;;5095139;28;20194;-69
2023/02/04 00:16:13;;;;;;;19.63;3.00;;;5.40;99.90;;;;;;5093944;28;20640;-69
2023/02/04 00:18:40;;;;;;;14.93;2.97;;;5.40;99.90;;;;;;5094829;28;20296;-69
2023/02/04 00:21:07;;;;;;;22.97;3.53;;;5.50;99.90;;;;;;5094068;28;20222;-69
2023/02/04 00:23:33;;;;;;;20.73;3.40;;;5.50;99.90;;;;;;5082965;28;20420;-69
2023/02/04 00:26:00;;;;;;;18.37;2.53;;;5.40;99.90;;;;;;5094425;28;20198;-69
2023/02/04 00:28:27;;;;;;;20.83;3.27;;;5.40;99.90;;;;;;5094995;28;20217;-69
2023/02/04 00:30:55;;;;;;;17.90;3.03;;;5.40;99.90;;;;;;5094519;28;20198;-69
2023/02/04 00:33:22;;;;;;;24.10;3.40;;;5.30;99.90;;;;;;5087264;28;20569;-69
2023/02/04 00:35:49;;;;;;;14.80;4.53;;;5.20;99.90;;;;;;5094975;28;20250;-69
2023/02/04 00:38:15;;;;;;;22.83;3.70;;;5.20;99.90;;;;;;5094409;28;20640;-69
2023/02/04 00:40:42;;;;;;;17.43;4.13;;;5.20;99.90;;;;;;5094750;28;20217;-69
2023/02/04 00:43:09;;;;;;;16.80;3.53;;;5.20;99.90;;;;;;5079579;28;20300;-69
2023/02/04 00:45:36;;;;;;;17.23;2.87;;;5.30;99.90;;;;;;5094943;28;20216;-70
2023/02/04 00:48:04;;;;;;;15.77;3.33;;;5.40;99.90;;;;;;5089101;28;20541;-69
2023/02/04 00:50:31;;;;;;;14.37;3.03;;;5.30;99.90;;;;;;5093414;28;20197;-70
2023/02/04 00:53:00;;;;;;;17.77;3.03;;;5.30;99.90;;;;;;5098408;28;20213;-70
2023/02/04 00:55:27;;;;;;;12.03;2.20;;;5.20;99.90;;;;;;5098850;28;20217;-70
2023/02/04 00:57:54;;;;;;;17.20;3.97;;;5.20;99.90;;;;;;5094404;28;20208;-70
2023/02/04 01:00:21;;;;;;;18.23;2.47;;;5.20;99.90;;;;;;5094691;28;20221;-70
2023/02/04 01:02:47;;;;;;;20.23;4.87;;;5.30;99.90;;;;;;5088146;28;20202;-70
2023/02/04 01:05:16;;;;;;;16.03;2.60;;;5.30;99.90;;;;;;5085251;28;20197;-70
2023/02/04 01:07:42;;;;;;;14.60;2.80;;;5.30;99.90;;;;;;5093658;28;20660;-70
2023/02/04 01:10:10;;;;;;;13.13;2.33;;;5.30;99.90;;;;;;5094405;28;20194;-70
2023/02/04 01:12:37;;;;;;;7.60;2.10;;;5.30;99.90;;;;;;5087189;28;20201;-70
2023/02/04 01:15:04;;;;;;;15.60;2.20;;;5.30;99.90;;;;;;5094100;28;20201;-70
2023/02/04 01:17:31;;;;;;;4.93;1.27;;;5.20;99.90;;;;;;5093346;28;20205;-70
2023/02/04 01:19:57;;;;;;;8.20;1.50;;;5.30;99.90;;;;;;5094323;28;20205;-70
2023/02/04 01:22:25;;;;;;;7.10;1.40;;;5.30;99.90;;;;;;5083038;28;20229;-70
2023/02/04 01:24:52;;;;;;;5.87;1.00;;;5.30;99.90;;;;;;5073929;28;20198;-70
2023/02/04 01:27:19;;;;;;;3.43;0.73;;;5.20;99.90;;;;;;5073263;28;20202;-70
2023/02/04 01:29:46;;;;;;;6.63;1.73;;;5.30;99.90;;;;;;5073201;28;20202;-70
2023/02/04 01:32:12;;;;;;;4.73;1.23;;;5.30;99.90;;;;;;5074095;28;20590;-70
2023/02/04 01:34:39;;;;;;;1.93;1.00;;;5.30;99.90;;;;;;5102348;28;20566;-70
2023/02/04 01:37:06;;;;;;;6.83;1.10;;;5.30;99.90;;;;;;5092763;28;20200;-70
2023/02/04 01:39:35;;;;;;;1.73;0.90;;;5.20;99.90;;;;;;5093147;28;20233;-70
2023/02/04 01:42:03;;;;;;;4.57;0.67;;;5.30;99.90;;;;;;5093150;28;20587;-70
2023/02/04 01:44:30;;;;;;;6.07;1.20;;;5.30;99.90;;;;;;5073944;28;20206;-70
2023/02/04 01:46:57;;;;;;;5.33;0.87;;;5.20;99.90;;;;;;5081630;28;20573;-70
2023/02/04 01:49:24;;;;;;;2.27;0.90;;;5.20;99.90;;;;;;5093828;28;20197;-70
2023/02/04 01:51:51;;;;;;;2.17;1.23;;;5.20;99.90;;;;;;5092754;28;20284;-71
2023/02/04 01:54:20;;;;;;;2.60;0.87;;;5.20;99.90;;;;;;5077650;28;20666;-70
2023/02/04 01:56:50;;;;;;;2.77;1.07;;;5.20;99.90;;;;;;5100141;28;20252;-71
2023/02/04 01:59:18;;;;;;;3.50;1.10;;;5.10;99.90;;;;;;5102793;28;20203;-70
2023/02/04 02:01:47;;;;;;;7.57;1.90;;;5.10;99.90;;;;;;5104240;28;20236;-70
2023/02/04 02:04:16;;;;;;;3.63;0.80;;;5.20;99.90;;;;;;5102542;28;20201;-70
2023/02/04 02:06:46;;;;;;;3.60;1.10;;;5.10;99.90;;;;;;5104071;28;20655;-70
2023/02/04 02:09:13;;;;;;;1.07;0.67;;;5.20;99.90;;;;;;5089047;28;20206;-70
2023/02/04 02:11:40;;;;;;;2.20;0.70;;;5.20;99.90;;;;;;5081309;28;20205;-70
2023/02/04 02:14:09;;;;;;;1.17;0.70;;;5.20;99.90;;;;;;5080810;28;20582;-70
2023/02/04 02:16:35;;;;;;;1.80;0.57;;;5.20;99.90;;;;;;5093100;28;20565;-70
2023/02/04 02:19:02;;;;;;;1.93;1.00;;;5.20;99.90;;;;;;5092473;28;20659;-70
2023/02/04 02:21:38;;;;;;;4.87;1.10;;;5.20;99.90;;;;;;5082867;28;20237;-71
2023/02/04 02:24:25;;;;;;;2.07;1.07;;;5.20;99.90;;;;;;5088857;28;20198;-70
2023/02/04 02:26:53;;;;;;;4.20;1.10;;;5.10;99.90;;;;;;5092818;28;20549;-70
2023/02/04 02:29:20;;;;;;;3.33;1.10;;;5.10;99.90;;;;;;5092890;28;20236;-70
2023/02/04 02:31:47;;;;;;;3.93;1.40;;;5.10;99.90;;;;;;5085082;28;20198;-70
2023/02/04 02:34:14;;;;;;;1.33;1.00;;;5.10;99.90;;;;;;5092488;28;20197;-70
2023/02/04 02:36:41;;;;;;;3.30;1.20;;;5.10;99.90;;;;;;5091665;28;20200;-70
2023/02/04 02:39:08;;;;;;;4.73;1.00;;;5.10;99.90;;;;;;5092749;28;20644;-70
2023/02/04 02:41:36;;;;;;;2.40;1.00;;;5.00;99.90;;;;;;5083151;28;20234;-70
2023/02/04 02:44:03;;;;;;;2.30;1.20;;;5.00;99.90;;;;;;5083378;28;20198;-70
2023/02/04 02:46:30;;;;;;;1.57;1.20;;;4.90;99.90;;;;;;5091252;28;20659;-70
2023/02/04 02:48:57;;;;;;;1.93;0.90;;;4.90;99.90;;;;;;5086147;28;20205;-70
2023/02/04 02:51:24;;;;;;;2.87;0.70;;;4.90;99.90;;;;;;5092396;28;20678;-70
2023/02/04 02:53:51;;;;;;;1.30;0.60;;;4.90;99.90;;;;;;5099664;28;20209;-70
2023/02/04 02:56:19;;;;;;;1.33;0.80;;;4.80;99.90;;;;;;5096451;28;20198;-70
2023/02/04 02:58:47;;;;;;;0.87;0.87;;;4.70;99.90;;;;;;5090482;28;20567;-70
2023/02/04 03:01:14;;;;;;;1.03;0.70;;;4.70;99.90;;;;;;5091924;28;20221;-70
2023/02/04 03:03:46;;;;;;;0.57;0.57;;;4.60;99.90;;;;;;5091410;28;20215;-70
2023/02/04 03:06:15;;;;;;;0.73;0.73;;;4.60;99.90;;;;;;5090397;28;20636;-70
2023/02/04 03:08:43;;;;;;;0.83;0.80;;;4.60;99.90;;;;;;5092423;28;20217;-70
2023/02/04 03:11:10;;;;;;;1.00;0.80;;;4.50;99.90;;;;;;5091102;28;20198;-70
2023/02/04 03:13:37;;;;;;;1.70;1.13;;;4.50;99.90;;;;;;5091642;28;20648;-70
2023/02/04 03:16:07;;;;;;;1.50;0.77;;;4.50;99.90;;;;;;5099347;28;20197;-70
2023/02/04 03:18:36;;;;;;;0.90;0.90;;;4.40;99.90;;;;;;5092665;28;20237;-70
2023/02/04 03:21:04;;;;;;;1.37;0.90;;;4.40;99.90;;;;;;5092127;28;20220;-70
2023/02/04 03:23:32;;;;;;;2.10;1.17;;;4.30;99.90;;;;;;5089806;28;20205;-70
2023/02/04 03:25:59;;;;;;;1.63;1.03;;;4.30;99.90;;;;;;5091987;28;20291;-70
2023/02/04 03:28:26;;;;;;;1.00;0.80;;;4.30;99.90;;;;;;5072201;28;20202;-70
2023/02/04 03:30:54;;;;;;;3.73;1.03;;;4.20;99.90;;;;;;5088030;28;20213;-70
2023/02/04 03:33:23;;;;;;;2.80;1.10;;;4.20;99.90;;;;;;5091598;28;20255;-70
2023/02/04 03:35:50;;;;;;;1.63;0.80;;;4.20;99.90;;;;;;5091617;28;20258;-70
2023/02/04 03:38:17;;;;;;;1.17;1.07;;;4.10;99.90;;;;;;5103051;28;20204;-70
2023/02/04 03:40:44;;;;;;;0.70;0.70;;;4.20;99.90;;;;;;5094989;28;20271;-70
2023/02/04 03:43:11;;;;;;;2.63;0.80;;;4.10;99.90;;;;;;5087318;28;20257;-70
2023/02/04 03:45:38;;;;;;;0.83;0.83;;;4.10;99.90;;;;;;5090800;28;20209;-70
2023/02/04 03:48:05;;;;;;;0.97;0.70;;;4.00;99.90;;;;;;5083875;28;20217;-70
2023/02/04 03:50:33;;;;;;;2.77;1.13;;;3.90;99.90;;;;;;5085162;28;20209;-71
2023/02/04 03:52:59;;;;;;;1.20;0.80;;;3.90;99.90;;;;;;5090859;28;20202;-70
2023/02/04 03:55:26;;;;;;;2.60;1.00;;;3.80;99.90;;;;;;5091540;28;20209;-70
2023/02/04 03:57:53;;;;;;;1.73;0.67;;;3.80;99.90;;;;;;5085909;28;20206;-70
2023/02/04 04:00:20;;;;;;;2.40;0.87;;;3.60;99.90;;;;;;5073368;28;20209;-70
2023/02/04 04:02:47;;;;;;;0.73;0.70;;;3.60;99.90;;;;;;5090645;28;20300;-70
2023/02/04 04:05:14;;;;;;;2.03;0.60;;;3.60;99.90;;;;;;5102250;28;20209;-70
2023/02/04 04:07:42;;;;;;;0.93;0.90;;;3.50;99.90;;;;;;5100534;28;20205;-70
2023/02/04 04:10:09;;;;;;;2.27;0.90;;;3.50;99.90;;;;;;5086179;28;20198;-70
2023/02/04 04:12:36;;;;;;;1.90;0.63;;;3.40;99.90;;;;;;5079291;28;20202;-70
2023/02/04 04:15:03;;;;;;;2.30;0.70;;;3.40;99.90;;;;;;5082006;28;20202;-70
2023/02/04 04:17:30;;;;;;;1.20;0.90;;;3.40;99.90;;;;;;5085165;28;20217;-70
2023/02/04 04:19:56;;;;;;;1.07;0.97;;;3.30;99.90;;;;;;5085266;28;20203;-70
2023/02/04 04:22:23;;;;;;;1.00;0.90;;;3.30;99.90;;;;;;5090666;28;20217;-70
2023/02/04 04:24:51;;;;;;;1.20;1.10;;;3.20;99.90;;;;;;5091176;28;20553;-73
2023/02/04 04:27:18;;;;;;;0.87;0.87;;;3.00;99.90;;;;;;5092444;28;20607;-73
2023/02/04 04:29:45;;;;;;;2.93;0.93;;;2.90;99.90;;;;;;5093934;28;20198;-73
2023/02/04 04:32:11;;;;;;;2.63;0.90;;;2.80;99.90;;;;;;5094219;28;20640;-73
2023/02/04 04:34:38;;;;;;;1.50;1.00;;;2.70;99.90;;;;;;5095229;28;20197;-74
2023/02/04 04:37:05;;;;;;;1.70;1.10;;;2.60;99.90;;;;;;5088075;28;20217;-73
2023/02/04 04:39:32;;;;;;;2.00;1.00;;;2.50;99.90;;;;;;5089199;28;20217;-73
2023/02/04 04:42:00;;;;;;;1.73;1.07;;;2.50;99.90;;;;;;5093219;28;20236;-72
2023/02/04 04:44:27;;;;;;;4.17;1.13;;;2.40;99.90;;;;;;5090288;28;20197;-73
2023/02/04 04:46:53;;;;;;;1.47;1.00;;;2.30;99.90;;;;;;5093168;28;20209;-72
2023/02/04 04:49:20;;;;;;;1.43;1.10;;;2.20;99.90;;;;;;5094298;28;20544;-73
2023/02/04 04:51:47;;;;;;;1.27;1.17;;;2.20;99.90;;;;;;5093752;28;20186;-73
2023/02/04 04:54:13;;;;;;;4.13;1.40;;;2.20;99.90;;;;;;5102115;28;20201;-73
2023/02/04 04:56:40;;;;;;;2.20;1.23;;;2.20;99.90;;;;;;5100833;28;20205;-73
2023/02/04 04:59:08;;;;;;;1.40;1.03;;;2.20;99.90;;;;;;5093663;28;20197;-73
2023/02/04 05:01:35;;;;;;;1.03;1.00;;;2.10;99.90;;;;;;5093242;28;20221;-73
2023/02/04 05:04:03;;;;;;;1.87;1.00;;;2.00;99.90;;;;;;5094178;28;20205;-73
2023/02/04 05:06:30;;;;;;;1.63;1.20;;;1.90;99.90;;;;;;5093077;28;20193;-73
2023/02/04 05:08:56;;;;;;;1.67;1.07;;;1.90;99.90;;;;;;5093896;28;20622;-73
2023/02/04 05:11:23;;;;;;;1.17;0.83;;;1.80;99.90;;;;;;5089011;28;20235;-73
2023/02/04 05:13:50;;;;;;;1.63;1.17;;;1.70;99.90;;;;;;5093490;28;20201;-73
2023/02/04 05:16:18;;;;;;;1.20;1.10;;;1.80;99.90;;;;;;5094194;28;20190;-73
2023/02/04 05:18:45;;;;;;;3.60;1.00;;;1.80;99.90;;;;;;5093769;28;20202;-73
2023/02/04 05:21:11;;;;;;;0.70;0.70;;;1.60;99.90;;;;;;5090790;28;20198;-73
2023/02/04 05:23:38;;;;;;;1.30;0.90;;;1.60;99.90;;;;;;5093812;28;20607;-73
2023/02/04 05:26:05;;;;;;;1.33;1.23;;;1.60;99.90;;;;;;5076123;28;20214;-73
2023/02/04 05:28:32;;;;;;;2.17;1.40;;;1.50;99.90;;;;;;5072323;28;20202;-73
2023/02/04 05:30:59;;;;;;;2.10;1.27;;;1.50;99.90;;;;;;5073463;28;20198;-73
2023/02/04 05:33:27;;;;;;;3.10;1.23;;;1.50;99.90;;;;;;5073705;28;20202;-73
2023/02/04 05:35:54;;;;;;;1.47;0.87;;;1.40;99.90;;;;;;5094891;28;20636;-73
2023/02/04 05:38:21;;;;;;;1.07;1.03;;;1.30;99.90;;;;;;5106826;28;20196;-73
2023/02/04 05:40:47;;;;;;;1.97;1.10;;;1.20;99.90;;;;;;5108476;28;20208;-73
2023/02/04 05:43:14;;;;;;;2.23;0.93;;;1.20;99.90;;;;;;5094104;28;20793;-73
2023/02/04 05:45:41;;;;;;;2.80;1.10;;;1.20;99.90;;;;;;5092739;28;20205;-73
2023/02/04 05:48:08;;;;;;;1.73;1.30;;;1.20;99.90;;;;;;5073492;28;20566;-73
2023/02/04 05:50:36;;;;;;;2.73;1.00;;;1.20;99.90;;;;;;5074046;28;20198;-73
2023/02/04 05:53:02;;;;;;;1.53;1.27;;;1.20;99.90;;;;;;5085111;28;20636;-73
2023/02/04 05:55:29;;;;;;;1.50;1.20;;;1.20;99.90;;;;;;5088318;28;20202;-73
2023/02/04 05:57:56;;;;;;;5.97;2.57;;;1.20;99.90;;;;;;5101818;28;20201;-73
2023/02/04 06:00:23;;;;;;;2.23;1.13;;;1.20;99.90;;;;;;5102385;28;20205;-74
2023/02/04 06:02:49;;;;;;;2.30;1.00;;;1.20;99.90;;;;;;5105967;28;20217;-74
2023/02/04 06:05:17;;;;;;;2.23;1.17;;;1.10;99.90;;;;;;5103373;28;20193;-73
2023/02/04 06:07:45;;;;;;;1.20;1.10;;;1.10;99.90;;;;;;5104584;28;20230;-73
2023/02/04 06:10:11;;;;;;;1.10;0.80;;;1.00;99.90;;;;;;5101086;28;20205;-73
2023/02/04 06:12:38;;;;;;;1.77;1.30;;;0.90;99.90;;;;;;5094051;28;20205;-73
2023/02/04 06:15:06;;;;;;;2.67;1.43;;;0.70;99.90;;;;;;5091831;28;20656;-73
2023/02/04 06:17:33;;;;;;;3.77;1.40;;;0.60;99.90;;;;;;5082107;28;20675;-73
2023/02/04 06:20:00;;;;;;;2.87;1.50;;;0.50;99.90;;;;;;5081669;28;20652;-74
2023/02/04 06:22:27;;;;;;;1.63;1.37;;;0.50;99.90;;;;;;5086394;28;20587;-73
2023/02/04 06:24:55;;;;;;;6.60;2.87;;;0.50;99.90;;;;;;5089403;28;20198;-73
2023/02/04 06:27:23;;;;;;;1.93;1.50;;;0.60;99.90;;;;;;5078969;28;20202;-73
2023/02/04 06:29:50;;;;;;;1.90;1.43;;;0.50;99.90;;;;;;5081929;28;20561;-73
2023/02/04 06:32:17;;;;;;;1.30;1.20;;;0.40;99.90;;;;;;5088393;28;20224;-74
2023/02/04 06:34:44;;;;;;;1.40;1.30;;;0.40;99.90;;;;;;5085169;28;20205;-74
2023/02/04 06:37:11;;;;;;;2.73;1.80;;;0.40;99.90;;;;;;5084265;28;20198;-74
2023/02/04 06:39:38;;;;;;;1.57;1.40;;;0.40;99.90;;;;;;5090364;28;20212;-74
2023/02/04 06:42:06;;;;;;;2.93;1.40;;;0.40;99.90;;;;;;5087092;28;20202;-73
2023/02/04 06:44:33;;;;;;;1.43;1.27;;;0.50;99.90;;;;;;5092176;28;20577;-73
2023/02/04 06:47:00;;;;;;;2.77;1.50;;;0.50;99.90;;;;;;5086463;28;20229;-74
2023/02/04 06:49:27;;;;;;;1.67;1.30;;;0.40;99.90;;;;;;5090373;28;20212;-74
2023/02/04 06:51:54;;;;;;;7.10;3.83;;;0.40;99.90;;;;;;5091469;28;20600;-73
2023/02/04 06:54:21;;;;;;;14.93;5.17;;;0.40;99.90;;;;;;5085089;28;20278;-73
2023/02/04 06:56:48;;;;;;;5.20;2.20;;;0.40;99.90;;;;;;5093073;28;20198;-73
2023/02/04 06:59:16;;;;;;;2.10;1.70;;;0.50;99.90;;;;;;5090747;28;20202;-74
2023/02/04 07:01:43;;;;;;;4.53;2.10;;;0.40;99.90;;;;;;5088967;28;20201;-73
2023/02/04 07:04:10;;;;;;;3.10;1.47;;;0.50;99.90;;;;;;5087301;28;20571;-74
2023/02/04 07:06:36;;;;;;;4.20;1.60;;;0.40;99.90;;;;;;5087032;28;20539;-73
2023/02/04 07:09:03;;;;;;;3.10;1.57;;;0.40;99.90;;;;;;5089660;28;20221;-73
2023/02/04 07:11:30;;;;;;;3.17;1.70;;;0.40;99.90;;;;;;5087412;28;20592;-73
2023/02/04 07:13:57;;;;;;;2.63;1.50;;;0.30;99.90;;;;;;5080959;28;20568;-73
2023/02/04 07:16:25;;;;;;;2.10;1.20;;;0.30;99.90;;;;;;5082476;28;20698;-74
2023/02/04 07:18:52;;;;;;;1.93;1.60;;;0.30;99.90;;;;;;5080582;28;20224;-74
2023/02/04 07:21:19;;;;;;;3.17;1.57;;;0.20;99.90;;;;;;5088710;28;20637;-73
2023/02/04 07:23:46;;;;;;;2.27;1.70;;;0.30;99.90;;;;;;5080526;28;20208;-74
2023/02/04 07:26:13;;;;;;;4.97;1.60;;;0.40;99.90;;;;;;5088307;28;20231;-74
2023/02/04 07:28:41;;;;;;;42.30;19.40;;;0.40;99.90;;;;;;5092365;28;20194;-73
2023/02/04 07:31:07;;;;;;;45.47;23.13;;;0.40;99.90;;;;;;5087858;28;20194;-74
2023/02/04 07:33:36;;;;;;;8.33;4.03;;;0.60;99.90;;;;;;5089532;28;20209;-73
2023/02/04 07:36:03;;;;;;;4.37;2.20;;;0.70;99.90;;;;;;5089856;28;20580;-73
2023/02/04 07:38:30;;;;;;;2.70;2.07;;;0.80;99.90;;;;;;5094546;28;20198;-74
2023/02/04 07:40:56;;;;;;;5.03;2.50;;;0.90;99.90;;;;;;5085826;28;20197;-73
2023/02/04 07:43:23;;;;;;;3.63;2.40;;;1.00;99.90;;;;;;5086505;28;20228;-73
2023/02/04 07:45:50;;;;;;;3.40;2.20;;;1.00;99.90;;;;;;5090879;28;20206;-73
2023/02/04 07:48:17;;;;;;;2.23;1.90;;;0.90;99.90;;;;;;5083286;28;20206;-73
2023/02/04 07:50:45;;;;;;;3.83;2.40;;;1.10;99.90;;;;;;5100080;28;20205;-73
2023/02/04 07:53:12;;;;;;;4.23;2.00;;;1.20;99.90;;;;;;5092209;28;20617;-74
2023/02/04 07:55:39;;;;;;;3.10;1.97;;;1.20;99.90;;;;;;5088260;28;20652;-68
2023/02/04 07:58:06;;;;;;;2.10;1.90;;;1.20;99.90;;;;;;5091732;28;20194;-69
2023/02/04 08:00:32;;;;;;;2.77;1.80;;;1.40;99.90;;;;;;5091867;28;20206;-68
2023/02/04 08:02:59;;;;;;;3.07;2.00;;;1.50;99.90;;;;;;5086990;28;20679;-68
2023/02/04 08:05:26;;;;;;;2.23;1.63;;;1.30;99.90;;;;;;5095460;28;20628;-68
2023/02/04 08:07:54;;;;;;;2.33;1.97;;;1.20;99.90;;;;;;5095589;28;20208;-68
2023/02/04 08:10:21;;;;;;;1.90;1.70;;;1.20;99.90;;;;;;5095216;28;20190;-68
2023/02/04 08:12:48;;;;;;;3.60;1.80;;;1.10;99.90;;;;;;5083191;28;20197;-68
2023/02/04 08:15:14;;;;;;;2.50;1.90;;;1.10;99.90;;;;;;5095224;28;20198;-68
2023/02/04 08:17:41;;;;;;;1.70;1.60;;;1.30;99.90;;;;;;5091199;28;20213;-69
2023/02/04 08:20:09;;;;;;;3.13;2.13;;;1.50;99.90;;;;;;5075974;28;20206;-69
2023/02/04 08:22:36;;;;;;;9.03;8.23;;;1.60;99.90;;;;;;5088031;28;20209;-68
2023/02/04 08:25:05;;;;;;;5.03;3.13;;;1.60;99.90;;;;;;5091068;28;20214;-69
2023/02/04 08:27:31;;;;;;;8.60;2.77;;;1.80;99.90;;;;;;5079779;28;20264;-68
2023/02/04 08:29:58;;;;;;;3.40;2.00;;;1.90;99.90;;;;;;5072336;28;20281;-68
2023/02/04 08:32:26;;;;;;;3.27;2.47;;;2.00;99.90;;;;;;5086941;28;20198;-69
2023/02/04 08:34:53;;;;;;;5.30;2.83;;;2.20;99.90;;;;;;5084521;28;20258;-69
2023/02/04 08:37:19;;;;;;;4.43;3.50;;;2.10;99.90;;;;;;5092519;28;20564;-69
2023/02/04 08:39:47;;;;;;;6.30;3.13;;;2.40;99.90;;;;;;5093263;28;20213;-69
2023/02/04 08:42:16;;;;;;;7.30;4.03;;;2.50;99.90;;;;;;5090178;28;20216;-69
2023/02/04 08:44:43;;;;;;;5.33;3.00;;;2.90;99.90;;;;;;5092637;28;20221;-70
2023/02/04 08:47:10;;;;;;;4.90;3.30;;;3.30;99.90;;;;;;5092157;28;20220;-69
2023/02/04 08:49:37;;;;;;;5.53;2.97;;;3.40;99.90;;;;;;5091046;28;20193;-69
2023/02/04 08:52:05;;;;;;;3.17;2.63;;;3.40;99.90;;;;;;5094458;28;20585;-69
2023/02/04 08:54:32;;;;;;;3.90;2.73;;;3.40;99.90;;;;;;5094889;28;20602;-69
2023/02/04 08:56:59;;;;;;;4.83;3.33;;;3.20;99.90;;;;;;5094915;28;20209;-69
2023/02/04 08:59:27;;;;;;;6.73;3.57;;;3.60;99.90;;;;;;5092215;28;20210;-69
2023/02/04 09:01:54;;;;;;;5.43;3.47;;;3.40;99.90;;;;;;5093513;28;20209;-69
2023/02/04 09:04:22;;;;;;;4.13;3.13;;;3.40;99.90;;;;;;5093738;28;20592;-69
2023/02/04 09:06:50;;;;;;;5.70;4.00;;;3.40;99.90;;;;;;5092916;28;20204;-69
2023/02/04 09:09:17;;;;;;;4.63;3.47;;;3.60;99.90;;;;;;5105962;28;20215;-69
2023/02/04 09:11:44;;;;;;;7.77;3.33;;;3.80;99.90;;;;;;5087369;28;20206;-70
2023/02/04 09:14:11;;;;;;;5.97;3.50;;;3.70;99.90;;;;;;5093668;28;20200;-69
2023/02/04 09:16:39;;;;;;;7.23;3.80;;;3.80;99.90;;;;;;5085685;28;20198;-69
2023/02/04 09:19:09;;;;;;;3.90;2.90;;;4.20;99.90;;;;;;5074044;28;20495;-69
2023/02/04 09:21:36;;;;;;;7.63;3.00;;;4.50;99.90;;;;;;5090777;28;20201;-69
2023/02/04 09:24:03;;;;;;;6.63;2.73;;;4.20;99.90;;;;;;5089476;28;20234;-69
2023/02/04 09:26:30;;;;;;;4.40;2.90;;;3.90;99.90;;;;;;5087060;28;20201;-69
2023/02/04 09:28:57;;;;;;;5.93;2.70;;;4.50;99.90;;;;;;5073124;28;20687;-69
2023/02/04 09:31:24;;;;;;;2.83;2.57;;;4.10;99.90;;;;;;5086590;28;20206;-69
2023/02/04 09:33:52;;;;;;;5.00;2.83;;;3.80;99.90;;;;;;5091957;28;20197;-69
2023/02/04 09:36:19;;;;;;;4.20;2.53;;;3.80;99.90;;;;;;5093106;28;20203;-69
2023/02/04 09:38:46;;;;;;;3.57;2.73;;;3.90;99.90;;;;;;5084976;28;20694;-69
2023/02/04 09:41:14;;;;;;;4.97;3.07;;;4.00;99.90;;;;;;5101894;28;20646;-69
2023/02/04 09:43:44;;;;;;;5.83;3.53;;;3.90;99.90;;;;;;5093779;27;20228;-68
2023/02/04 09:46:18;;;;;;;3.77;2.87;;;4.10;99.90;;;;;;5087163;28;20201;-71
2023/02/04 09:48:44;;;;;;;3.60;2.30;;;4.30;99.90;;;;;;5088642;28;20197;-72
2023/02/04 09:51:16;;;;;;;4.33;2.80;;;4.20;99.90;;;;;;5091109;28;20202;-72
2023/02/04 09:53:43;;;;;;;3.27;2.57;;;4.10;99.90;;;;;;5091663;28;20193;-72
2023/02/04 09:56:11;;;;;;;4.23;3.03;;;4.20;99.90;;;;;;5087462;28;20206;-72
2023/02/04 09:58:38;;;;;;;3.20;2.33;;;4.40;99.90;;;;;;5088260;28;20731;-73
2023/02/04 10:01:13;;;;;;;5.17;3.50;;;4.40;99.90;;;;;;5085948;28;20206;-72
2023/02/04 10:03:45;;;;;;;7.83;2.93;;;4.40;99.90;;;;;;5091348;28;20679;-72
2023/02/04 10:06:14;;;;;;;3.70;2.87;;;4.60;99.90;;;;;;5089247;28;20198;-72
2023/02/04 10:08:43;;;;;;;5.10;2.90;;;4.60;99.90;;;;;;5085427;28;20402;-73
2023/02/04 10:11:10;;;;;;;3.90;2.63;;;4.60;99.90;;;;;;5091406;28;20208;-72
2023/02/04 10:13:40;;;;;;;6.53;2.60;;;4.50;99.90;;;;;;5088096;28;20198;-72
2023/02/04 10:16:14;;;;;;;4.00;2.60;;;4.50;99.90;;;;;;5087110;28;20201;-73
2023/02/04 10:18:41;;;;;;;2.90;2.40;;;4.60;99.90;;;;;;5089587;28;20236;-73
2023/02/04 10:21:16;;;;;;;4.77;2.73;;;4.80;99.90;;;;;;5089291;28;20201;-72
2023/02/04 10:23:46;;;;;;;6.13;2.50;;;4.90;99.90;;;;;;5087231;28;20563;-72
2023/02/04 10:26:15;;;;;;;3.87;2.60;;;5.00;99.90;;;;;;5085432;28;20200;-72
2023/02/04 10:28:42;;;;;;;2.40;2.07;;;5.10;99.90;;;;;;5089086;28;20209;-73
2023/02/04 10:31:29;;;;;;;2.80;2.20;;;5.50;99.90;;;;;;5092442;28;20194;-72
2023/02/04 10:34:07;;;;;;;5.23;2.40;;;5.70;99.90;;;;;;5087422;28;20485;-73
2023/02/04 10:36:36;;;;;;;2.60;2.37;;;5.60;99.90;;;;;;5088677;28;20209;-73
2023/02/04 10:39:04;;;;;;;4.73;2.47;;;5.60;99.90;;;;;;5086699;28;20201;-72
2023/02/04 10:41:32;;;;;;;2.83;2.20;;;5.30;99.90;;;;;;5089035;28;20202;-72
2023/02/04 10:44:07;;;;;;;3.63;2.40;;;5.50;99.90;;;;;;5087222;28;20659;-73
2023/02/04 10:46:34;;;;;;;3.03;2.10;;;6.00;99.90;;;;;;5085929;28;20201;-73
2023/02/04 10:49:00;;;;;;;3.23;2.40;;;6.50;99.90;;;;;;5085723;28;20225;-73
2023/02/04 10:51:28;;;;;;;3.03;2.33;;;6.20;99.90;;;;;;5092369;28;20210;-73
2023/02/04 10:56:41;;;;;;;4.17;2.43;;;5.80;99.90;;;;;;5094054;28;20208;-72
2023/02/04 10:59:20;;;;;;;5.57;2.70;;;5.70;99.90;;;;;;5089883;28;20209;-72
2023/02/04 11:01:47;;;;;;;5.10;2.57;;;5.60;99.90;;;;;;5088435;28;20201;-72
2023/02/04 11:04:14;;;;;;;4.33;3.00;;;5.30;99.90;;;;;;5092230;28;20582;-72
2023/02/04 11:06:41;;;;;;;4.70;2.57;;;5.10;99.90;;;;;;5093305;28;20205;-72
2023/02/04 11:09:12;;;;;;;3.77;2.10;;;5.40;99.90;;;;;;5082265;28;20198;-72
2023/02/04 11:11:45;;;;;;;3.27;2.17;;;5.60;99.90;;;;;;5089076;28;20198;-72
2023/02/04 11:14:22;;;;;;;3.30;1.87;;;6.00;99.90;;;;;;5086844;28;20729;-71
2023/02/04 11:16:50;;;;;;;5.20;2.30;;;6.20;99.90;;;;;;5082597;28;20197;-72
2023/02/04 11:19:32;;;;;;;3.40;2.60;;;6.20;99.90;;;;;;5083272;28;20218;-72
2023/02/04 11:22:19;;;;;;;3.60;2.10;;;6.00;99.90;;;;;;5083339;28;20758;-72
2023/02/04 11:24:48;;;;;;;3.07;2.20;;;6.10;99.90;;;;;;5090799;28;20626;-72
2023/02/04 11:27:25;;;;;;;5.37;2.37;;;6.00;99.90;;;;;;5083124;28;20202;-73
2023/02/04 11:29:52;;;;;;;7.17;2.77;;;5.70;99.90;;;;;;5079242;28;20201;-73
2023/02/04 11:32:32;;;;;;;6.97;3.00;;;5.60;99.90;;;;;;5083471;28;20221;-76
2023/02/04 11:35:27;;;;;;;6.23;2.90;;;5.30;99.90;;;;;;5082909;28;20205;-75
2023/02/04 11:37:54;;;;;;;5.73;2.73;;;5.30;99.90;;;;;;5086571;28;20206;-76
2023/02/04 11:40:33;;;;;;;4.63;2.63;;;5.50;99.90;;;;;;5090659;28;20754;-75
2023/02/04 11:43:02;;;;;;;5.47;2.60;;;5.70;99.90;;;;;;5083485;28;20258;-75
2023/02/04 11:45:32;;;;;;;3.77;2.67;;;5.90;99.90;;;;;;5091696;28;20236;-74
2023/02/04 11:48:01;;;;;;;7.63;3.00;;;6.10;99.90;;;;;;5090237;28;20245;-75
2023/02/04 11:50:31;;;;;;;4.80;2.83;;;6.00;99.90;;;;;;5087464;28;20690;-74
2023/02/04 11:53:00;;;;;;;5.13;2.97;;;5.80;99.90;;;;;;5083323;28;20201;-75
2023/02/04 11:55:30;;;;;;;6.33;3.00;;;5.60;99.90;;;;;;5090533;28;20375;-74
2023/02/04 11:57:57;;;;;;;7.77;3.30;;;5.60;99.90;;;;;;5092414;28;20201;-75
2023/02/04 12:00:26;;;;;;;4.37;2.83;;;5.60;99.90;;;;;;5101274;28;20212;-75
2023/02/04 12:02:57;;;;;;;7.83;3.27;;;5.80;99.90;;;;;;5090882;28;20690;-75
2023/02/04 12:05:37;;;;;;;6.30;3.63;;;6.10;99.90;;;;;;5089857;28;20618;-75
2023/02/04 12:08:24;;;;;;;6.33;3.00;;;6.10;99.90;;;;;;5095265;28;20199;-75
2023/02/04 12:11:01;;;;;;;4.77;3.10;;;6.00;99.90;;;;;;5086994;28;20662;-75
2023/02/04 12:13:29;;;;;;;7.60;3.57;;;6.00;99.90;;;;;;5088434;28;20197;-76
2023/02/04 12:16:00;;;;;;;4.77;2.93;;;5.80;99.90;;;;;;5091037;28;20658;-76
2023/02/04 12:18:27;;;;;;;6.43;3.43;;;6.00;99.90;;;;;;5088855;28;20220;-75
2023/02/04 12:20:55;;;;;;;6.67;3.03;;;6.40;99.90;;;;;;5088726;28;20229;-76
2023/02/04 12:23:24;;;;;;;6.13;3.13;;;6.50;99.90;;;;;;5088045;28;20604;-76
2023/02/04 12:25:53;;;;;;;6.47;3.30;;;6.80;99.90;;;;;;5090923;28;20247;-76
2023/02/04 12:28:20;;;;;;;4.53;2.70;;;7.40;99.90;;;;;;5082165;28;20218;-76
2023/02/04 12:30:47;;;;;;;3.93;2.63;;;7.20;99.90;;;;;;5089076;28;20640;-76
2023/02/04 12:33:14;;;;;;;6.07;2.77;;;7.60;99.90;;;;;;5085135;28;20579;-75
2023/02/04 12:35:41;;;;;;;3.67;2.50;;;7.80;99.90;;;;;;5091939;28;20209;-75
2023/02/04 12:38:08;;;;;;;5.30;2.50;;;8.80;99.90;;;;;;5092963;28;21669;-75
2023/02/04 12:40:35;;;;;;;3.77;2.70;;;8.20;99.90;;;;;;5086580;28;20309;-75
2023/02/04 12:43:03;;;;;;;3.00;2.30;;;8.70;99.90;;;;;;5089745;28;20202;-75
2023/02/04 12:45:30;;;;;;;4.47;2.40;;;9.10;99.90;;;;;;5092945;28;20722;-75
2023/02/04 12:47:57;;;;;;;4.13;2.30;;;11.20;99.90;;;;;;5089308;28;20663;-75
2023/02/04 12:50:25;;;;;;;3.30;1.80;;;10.00;99.90;;;;;;5086488;28;20216;-75
2023/02/04 12:52:52;;;;;;;2.30;1.57;;;8.80;99.90;;;;;;5084131;28;20292;-75
2023/02/04 12:55:20;;;;;;;2.13;1.57;;;9.90;99.90;;;;;;5089138;28;20578;-75
2023/02/04 12:57:47;;;;;;;5.17;1.80;;;9.50;99.90;;;;;;5084618;28;20197;-76
2023/02/04 13:00:17;;;;;;;2.70;1.73;;;8.20;99.90;;;;;;5082718;28;20206;-75
2023/02/04 13:02:44;;;;;;;4.57;1.30;;;7.60;99.90;;;;;;5088497;28;20197;-75